sensor_id;sensor_type;location;lat;lon;timestamp;P1;durP1;ratioP1;P2;durP2;ratioP2
57247;SDS011;55809;46.618;10.764;2023-09-18T00:01:26;8.27;;;2.33;;
57247;SDS011;55809;46.618;10.764;2023-09-18T00:03:53;5.95;;;2.28;;
57247;SDS011;55809;46.618;10.764;2023-09-18T00:06:20;4.38;;;2.00;;
57247;SDS011;55809;46.618;10.764;2023-09-18T00:08:50;5.60;;;2.47;;
57247;SDS011;55809;46.618;10.764;2023-09-18T00:11:20;5.53;;;2.35;;
57247;SDS011;55809;46.618;10.764;2023-09-18T00:13:47;5.93;;;2.25;;
57247;SDS011;55809;46.618;10.764;2023-09-18T00:16:14;3.70;;;1.92;;
57247;SDS011;55809;46.618;10.764;2023-09-18T00:18:41;5.47;;;2.30;;
57247;SDS011;55809;46.618;10.764;2023-09-18T00:21:09;5.25;;;2.28;;
57247;SDS011;55809;46.618;10.764;2023-09-18T00:23:37;4.88;;;2.25;;
57247;SDS011;55809;46.618;10.764;2023-09-18T00:26:04;4.90;;;2.10;;
57247;SDS011;55809;46.618;10.764;2023-09-18T00:28:33;5.57;;;2.40;;
57247;SDS011;55809;46.618;10.764;2023-09-18T00:31:00;5.63;;;2.40;;
57247;SDS011;55809;46.618;10.764;2023-09-18T00:33:27;7.70;;;2.60;;
57247;SDS011;55809;46.618;10.764;2023-09-18T00:35:54;5.78;;;2.47;;
57247;SDS011;55809;46.618;10.764;2023-09-18T00:38:21;6.47;;;2.00;;
57247;SDS011;55809;46.618;10.764;2023-09-18T00:40:49;6.13;;;2.50;;
57247;SDS011;55809;46.618;10.764;2023-09-18T00:43:16;7.10;;;2.55;;
57247;SDS011;55809;46.618;10.764;2023-09-18T00:45:47;6.28;;;2.40;;
57247;SDS011;55809;46.618;10.764;2023-09-18T00:48:15;6.03;;;2.35;;
57247;SDS011;55809;46.618;10.764;2023-09-18T00:50:43;7.10;;;2.28;;
57247;SDS011;55809;46.618;10.764;2023-09-18T00:53:11;6.93;;;2.58;;
57247;SDS011;55809;46.618;10.764;2023-09-18T00:55:45;3.83;;;2.03;;
57247;SDS011;55809;46.618;10.764;2023-09-18T00:58:13;5.00;;;2.17;;
57247;SDS011;55809;46.618;10.764;2023-09-18T01:00:42;6.07;;;2.30;;
57247;SDS011;55809;46.618;10.764;2023-09-18T01:03:12;6.45;;;2.53;;
57247;SDS011;55809;46.618;10.764;2023-09-18T01:05:42;4.18;;;2.05;;
57247;SDS011;55809;46.618;10.764;2023-09-18T01:08:09;5.55;;;2.22;;
57247;SDS011;55809;46.618;10.764;2023-09-18T01:10:40;5.78;;;2.42;;
57247;SDS011;55809;46.618;10.764;2023-09-18T01:13:16;4.75;;;2.20;;
57247;SDS011;55809;46.618;10.764;2023-09-18T01:15:50;4.43;;;1.77;;
57247;SDS011;55809;46.618;10.764;2023-09-18T01:18:22;5.78;;;2.63;;
57247;SDS011;55809;46.618;10.764;2023-09-18T01:20:48;4.72;;;2.55;;
57247;SDS011;55809;46.618;10.764;2023-09-18T01:23:17;6.30;;;2.55;;
57247;SDS011;55809;46.618;10.764;2023-09-18T01:25:44;7.50;;;2.90;;
57247;SDS011;55809;46.618;10.764;2023-09-18T01:28:11;5.15;;;2.25;;
57247;SDS011;55809;46.618;10.764;2023-09-18T01:30:38;5.95;;;3.00;;
57247;SDS011;55809;46.618;10.764;2023-09-18T01:33:05;5.85;;;2.33;;
57247;SDS011;55809;46.618;10.764;2023-09-18T01:35:33;5.28;;;2.28;;
57247;SDS011;55809;46.618;10.764;2023-09-18T01:38:01;6.40;;;2.60;;
57247;SDS011;55809;46.618;10.764;2023-09-18T01:40:31;5.15;;;2.55;;
57247;SDS011;55809;46.618;10.764;2023-09-18T01:42:58;5.63;;;2.60;;
57247;SDS011;55809;46.618;10.764;2023-09-18T01:45:26;7.15;;;2.30;;
57247;SDS011;55809;46.618;10.764;2023-09-18T01:47:53;4.75;;;2.40;;
57247;SDS011;55809;46.618;10.764;2023-09-18T01:50:20;5.32;;;2.63;;
57247;SDS011;55809;46.618;10.764;2023-09-18T01:52:47;5.82;;;2.33;;
57247;SDS011;55809;46.618;10.764;2023-09-18T01:55:14;4.90;;;2.30;;
57247;SDS011;55809;46.618;10.764;2023-09-18T01:57:42;5.75;;;2.38;;
57247;SDS011;55809;46.618;10.764;2023-09-18T02:00:10;5.28;;;2.45;;
57247;SDS011;55809;46.618;10.764;2023-09-18T02:02:38;4.78;;;2.40;;
57247;SDS011;55809;46.618;10.764;2023-09-18T02:05:05;6.13;;;2.33;;
57247;SDS011;55809;46.618;10.764;2023-09-18T02:07:33;5.32;;;2.20;;
57247;SDS011;55809;46.618;10.764;2023-09-18T02:10:00;4.35;;;2.13;;
57247;SDS011;55809;46.618;10.764;2023-09-18T02:12:28;5.57;;;2.38;;
57247;SDS011;55809;46.618;10.764;2023-09-18T02:14:57;6.10;;;2.78;;
57247;SDS011;55809;46.618;10.764;2023-09-18T02:17:26;4.72;;;1.92;;
57247;SDS011;55809;46.618;10.764;2023-09-18T02:19:53;3.83;;;2.15;;
57247;SDS011;55809;46.618;10.764;2023-09-18T02:22:20;5.60;;;2.30;;
57247;SDS011;55809;46.618;10.764;2023-09-18T02:24:47;7.85;;;3.03;;
57247;SDS011;55809;46.618;10.764;2023-09-18T02:27:15;5.30;;;2.38;;
57247;SDS011;55809;46.618;10.764;2023-09-18T02:29:43;12.55;;;2.83;;
57247;SDS011;55809;46.618;10.764;2023-09-18T02:32:12;5.25;;;2.40;;
57247;SDS011;55809;46.618;10.764;2023-09-18T02:34:39;5.07;;;2.30;;
57247;SDS011;55809;46.618;10.764;2023-09-18T02:37:07;5.60;;;2.30;;
57247;SDS011;55809;46.618;10.764;2023-09-18T02:39:34;6.13;;;2.63;;
57247;SDS011;55809;46.618;10.764;2023-09-18T02:42:02;5.85;;;2.50;;
57247;SDS011;55809;46.618;10.764;2023-09-18T02:44:29;5.55;;;2.30;;
57247;SDS011;55809;46.618;10.764;2023-09-18T02:46:56;5.88;;;2.65;;
57247;SDS011;55809;46.618;10.764;2023-09-18T02:49:25;6.47;;;2.50;;
57247;SDS011;55809;46.618;10.764;2023-09-18T02:51:52;6.85;;;2.22;;
57247;SDS011;55809;46.618;10.764;2023-09-18T02:54:19;5.00;;;2.20;;
57247;SDS011;55809;46.618;10.764;2023-09-18T02:56:46;5.50;;;2.70;;
57247;SDS011;55809;46.618;10.764;2023-09-18T02:59:13;5.30;;;2.53;;
57247;SDS011;55809;46.618;10.764;2023-09-18T03:01:40;4.88;;;2.35;;
57247;SDS011;55809;46.618;10.764;2023-09-18T03:04:08;6.20;;;2.50;;
57247;SDS011;55809;46.618;10.764;2023-09-18T03:06:37;4.70;;;2.40;;
57247;SDS011;55809;46.618;10.764;2023-09-18T03:09:05;4.40;;;2.30;;
57247;SDS011;55809;46.618;10.764;2023-09-18T03:11:32;5.85;;;2.53;;
57247;SDS011;55809;46.618;10.764;2023-09-18T03:13:59;5.18;;;2.20;;
57247;SDS011;55809;46.618;10.764;2023-09-18T03:16:26;6.95;;;2.67;;
57247;SDS011;55809;46.618;10.764;2023-09-18T03:18:53;4.85;;;2.17;;
57247;SDS011;55809;46.618;10.764;2023-09-18T03:21:22;5.53;;;2.60;;
57247;SDS011;55809;46.618;10.764;2023-09-18T03:23:50;4.90;;;2.38;;
57247;SDS011;55809;46.618;10.764;2023-09-18T03:26:17;5.35;;;2.33;;
57247;SDS011;55809;46.618;10.764;2023-09-18T03:28:44;4.95;;;2.33;;
57247;SDS011;55809;46.618;10.764;2023-09-18T03:31:11;5.60;;;2.30;;
57247;SDS011;55809;46.618;10.764;2023-09-18T03:33:39;4.97;;;2.45;;
57247;SDS011;55809;46.618;10.764;2023-09-18T03:36:06;5.22;;;2.47;;
57247;SDS011;55809;46.618;10.764;2023-09-18T03:38:36;5.18;;;2.03;;
57247;SDS011;55809;46.618;10.764;2023-09-18T03:41:05;5.82;;;2.38;;
57247;SDS011;55809;46.618;10.764;2023-09-18T03:43:32;7.78;;;2.80;;
57247;SDS011;55809;46.618;10.764;2023-09-18T03:46:05;6.07;;;2.22;;
57247;SDS011;55809;46.618;10.764;2023-09-18T03:48:32;5.70;;;2.00;;
57247;SDS011;55809;46.618;10.764;2023-09-18T03:51:02;5.57;;;2.53;;
57247;SDS011;55809;46.618;10.764;2023-09-18T03:53:32;5.43;;;2.40;;
57247;SDS011;55809;46.618;10.764;2023-09-18T03:55:59;7.00;;;2.78;;
57247;SDS011;55809;46.618;10.764;2023-09-18T03:58:27;6.95;;;2.80;;
57247;SDS011;55809;46.618;10.764;2023-09-18T04:00:55;6.05;;;2.38;;
57247;SDS011;55809;46.618;10.764;2023-09-18T04:03:22;6.65;;;2.50;;
57247;SDS011;55809;46.618;10.764;2023-09-18T04:05:49;5.63;;;2.63;;
57247;SDS011;55809;46.618;10.764;2023-09-18T04:08:16;4.72;;;2.47;;
57247;SDS011;55809;46.618;10.764;2023-09-18T04:10:43;6.75;;;2.67;;
57247;SDS011;55809;46.618;10.764;2023-09-18T04:13:10;5.72;;;2.72;;
57247;SDS011;55809;46.618;10.764;2023-09-18T04:15:38;5.05;;;2.42;;
57247;SDS011;55809;46.618;10.764;2023-09-18T04:18:06;7.75;;;2.70;;
57247;SDS011;55809;46.618;10.764;2023-09-18T04:20:33;8.25;;;3.40;;
57247;SDS011;55809;46.618;10.764;2023-09-18T04:23:23;5.35;;;2.50;;
57247;SDS011;55809;46.618;10.764;2023-09-18T04:25:51;4.55;;;2.10;;
57247;SDS011;55809;46.618;10.764;2023-09-18T04:28:19;5.75;;;2.58;;
57247;SDS011;55809;46.618;10.764;2023-09-18T04:30:50;5.90;;;2.75;;
57247;SDS011;55809;46.618;10.764;2023-09-18T04:33:17;6.80;;;2.85;;
57247;SDS011;55809;46.618;10.764;2023-09-18T04:35:44;7.93;;;2.67;;
57247;SDS011;55809;46.618;10.764;2023-09-18T04:38:11;4.57;;;2.42;;
57247;SDS011;55809;46.618;10.764;2023-09-18T04:40:39;3.30;;;1.73;;
57247;SDS011;55809;46.618;10.764;2023-09-18T04:43:06;7.15;;;2.88;;
57247;SDS011;55809;46.618;10.764;2023-09-18T04:45:33;6.03;;;2.30;;
57247;SDS011;55809;46.618;10.764;2023-09-18T04:48:02;6.63;;;2.67;;
57247;SDS011;55809;46.618;10.764;2023-09-18T04:50:30;6.38;;;2.95;;
57247;SDS011;55809;46.618;10.764;2023-09-18T04:52:59;5.40;;;2.30;;
57247;SDS011;55809;46.618;10.764;2023-09-18T04:55:25;5.57;;;2.47;;
57247;SDS011;55809;46.618;10.764;2023-09-18T04:57:52;6.65;;;2.63;;
57247;SDS011;55809;46.618;10.764;2023-09-18T05:00:19;6.45;;;2.75;;
57247;SDS011;55809;46.618;10.764;2023-09-18T05:02:48;4.97;;;2.13;;
57247;SDS011;55809;46.618;10.764;2023-09-18T05:05:16;6.70;;;3.22;;
57247;SDS011;55809;46.618;10.764;2023-09-18T05:07:44;4.88;;;2.35;;
57247;SDS011;55809;46.618;10.764;2023-09-18T05:10:11;4.57;;;2.17;;
57247;SDS011;55809;46.618;10.764;2023-09-18T05:12:38;4.13;;;2.20;;
57247;SDS011;55809;46.618;10.764;2023-09-18T05:15:07;4.80;;;1.95;;
57247;SDS011;55809;46.618;10.764;2023-09-18T05:17:41;4.43;;;2.13;;
57247;SDS011;55809;46.618;10.764;2023-09-18T05:20:11;5.90;;;2.42;;
57247;SDS011;55809;46.618;10.764;2023-09-18T05:22:43;6.28;;;2.58;;
57247;SDS011;55809;46.618;10.764;2023-09-18T05:25:10;5.18;;;2.47;;
57247;SDS011;55809;46.618;10.764;2023-09-18T05:27:39;7.13;;;3.08;;
57247;SDS011;55809;46.618;10.764;2023-09-18T05:30:10;4.47;;;2.17;;
57247;SDS011;55809;46.618;10.764;2023-09-18T05:32:41;6.00;;;2.60;;
57247;SDS011;55809;46.618;10.764;2023-09-18T05:35:09;8.35;;;3.05;;
57247;SDS011;55809;46.618;10.764;2023-09-18T05:37:37;4.95;;;2.42;;
57247;SDS011;55809;46.618;10.764;2023-09-18T05:40:09;5.70;;;2.33;;
57247;SDS011;55809;46.618;10.764;2023-09-18T05:42:38;5.28;;;2.45;;
57247;SDS011;55809;46.618;10.764;2023-09-18T05:45:08;5.75;;;2.53;;
57247;SDS011;55809;46.618;10.764;2023-09-18T05:47:36;8.50;;;3.15;;
57247;SDS011;55809;46.618;10.764;2023-09-18T05:50:03;6.05;;;2.42;;
57247;SDS011;55809;46.618;10.764;2023-09-18T05:52:32;5.57;;;2.50;;
57247;SDS011;55809;46.618;10.764;2023-09-18T05:54:59;6.03;;;2.45;;
57247;SDS011;55809;46.618;10.764;2023-09-18T05:57:27;6.70;;;3.15;;
57247;SDS011;55809;46.618;10.764;2023-09-18T05:59:54;7.63;;;4.35;;
57247;SDS011;55809;46.618;10.764;2023-09-18T06:02:22;7.35;;;3.08;;
57247;SDS011;55809;46.618;10.764;2023-09-18T06:04:52;6.00;;;2.75;;
57247;SDS011;55809;46.618;10.764;2023-09-18T06:07:21;7.18;;;2.90;;
57247;SDS011;55809;46.618;10.764;2023-09-18T06:09:48;6.10;;;2.42;;
57247;SDS011;55809;46.618;10.764;2023-09-18T06:12:15;5.50;;;2.60;;
57247;SDS011;55809;46.618;10.764;2023-09-18T06:14:44;5.78;;;2.65;;
57247;SDS011;55809;46.618;10.764;2023-09-18T06:19:40;7.50;;;3.17;;
57247;SDS011;55809;46.618;10.764;2023-09-18T06:22:06;11.05;;;3.03;;
57247;SDS011;55809;46.618;10.764;2023-09-18T06:24:34;7.50;;;3.05;;
57247;SDS011;55809;46.618;10.764;2023-09-18T06:27:01;5.72;;;2.30;;
57247;SDS011;55809;46.618;10.764;2023-09-18T06:29:29;5.18;;;2.50;;
57247;SDS011;55809;46.618;10.764;2023-09-18T06:31:58;6.10;;;2.67;;
57247;SDS011;55809;46.618;10.764;2023-09-18T06:34:25;6.93;;;2.85;;
57247;SDS011;55809;46.618;10.764;2023-09-18T06:36:53;4.88;;;2.50;;
57247;SDS011;55809;46.618;10.764;2023-09-18T06:39:20;6.88;;;3.13;;
57247;SDS011;55809;46.618;10.764;2023-09-18T06:41:49;5.28;;;2.45;;
57247;SDS011;55809;46.618;10.764;2023-09-18T06:44:16;7.43;;;3.35;;
57247;SDS011;55809;46.618;10.764;2023-09-18T06:46:42;7.63;;;2.63;;
57247;SDS011;55809;46.618;10.764;2023-09-18T06:49:11;5.72;;;2.88;;
57247;SDS011;55809;46.618;10.764;2023-09-18T06:51:38;5.57;;;2.80;;
57247;SDS011;55809;46.618;10.764;2023-09-18T06:54:05;5.55;;;2.53;;
57247;SDS011;55809;46.618;10.764;2023-09-18T06:56:32;8.38;;;3.17;;
57247;SDS011;55809;46.618;10.764;2023-09-18T06:58:59;7.25;;;3.30;;
57247;SDS011;55809;46.618;10.764;2023-09-18T07:01:26;7.18;;;3.75;;
57247;SDS011;55809;46.618;10.764;2023-09-18T07:03:53;6.25;;;2.78;;
57247;SDS011;55809;46.618;10.764;2023-09-18T07:06:22;6.03;;;2.60;;
57247;SDS011;55809;46.618;10.764;2023-09-18T07:08:49;6.40;;;2.90;;
57247;SDS011;55809;46.618;10.764;2023-09-18T07:11:16;8.70;;;3.58;;
57247;SDS011;55809;46.618;10.764;2023-09-18T07:13:44;7.20;;;2.92;;
57247;SDS011;55809;46.618;10.764;2023-09-18T07:16:11;6.80;;;3.13;;
57247;SDS011;55809;46.618;10.764;2023-09-18T07:18:38;7.93;;;3.20;;
57247;SDS011;55809;46.618;10.764;2023-09-18T07:21:05;7.70;;;3.35;;
57247;SDS011;55809;46.618;10.764;2023-09-18T07:23:33;5.68;;;2.72;;
57247;SDS011;55809;46.618;10.764;2023-09-18T07:26:02;7.93;;;3.35;;
57247;SDS011;55809;46.618;10.764;2023-09-18T07:28:29;6.70;;;3.15;;
57247;SDS011;55809;46.618;10.764;2023-09-18T07:30:56;5.80;;;2.67;;
57247;SDS011;55809;46.618;10.764;2023-09-18T07:33:23;7.68;;;3.10;;
57247;SDS011;55809;46.618;10.764;2023-09-18T07:35:50;8.25;;;3.85;;
57247;SDS011;55809;46.618;10.764;2023-09-18T07:38:18;7.05;;;3.72;;
57247;SDS011;55809;46.618;10.764;2023-09-18T07:40:46;8.98;;;3.85;;
57247;SDS011;55809;46.618;10.764;2023-09-18T07:43:15;8.82;;;3.83;;
57247;SDS011;55809;46.618;10.764;2023-09-18T07:45:42;6.63;;;3.50;;
57247;SDS011;55809;46.618;10.764;2023-09-18T07:48:09;8.43;;;3.08;;
57247;SDS011;55809;46.618;10.764;2023-09-18T07:50:36;7.10;;;3.38;;
57247;SDS011;55809;46.618;10.764;2023-09-18T07:53:03;7.00;;;3.20;;
57247;SDS011;55809;46.618;10.764;2023-09-18T07:55:30;7.57;;;3.13;;
57247;SDS011;55809;46.618;10.764;2023-09-18T07:57:58;6.55;;;2.83;;
57247;SDS011;55809;46.618;10.764;2023-09-18T08:00:26;7.22;;;3.10;;
57247;SDS011;55809;46.618;10.764;2023-09-18T08:02:54;7.78;;;3.38;;
57247;SDS011;55809;46.618;10.764;2023-09-18T08:05:26;8.32;;;3.60;;
57247;SDS011;55809;46.618;10.764;2023-09-18T08:07:53;7.90;;;3.42;;
57247;SDS011;55809;46.618;10.764;2023-09-18T08:10:24;6.50;;;3.15;;
57247;SDS011;55809;46.618;10.764;2023-09-18T08:12:51;7.90;;;3.72;;
57247;SDS011;55809;46.618;10.764;2023-09-18T08:15:20;6.30;;;3.42;;
57247;SDS011;55809;46.618;10.764;2023-09-18T08:17:47;7.45;;;3.50;;
57247;SDS011;55809;46.618;10.764;2023-09-18T08:20:15;7.20;;;3.40;;
57247;SDS011;55809;46.618;10.764;2023-09-18T08:22:42;7.25;;;3.10;;
57247;SDS011;55809;46.618;10.764;2023-09-18T08:25:09;8.57;;;3.17;;
57247;SDS011;55809;46.618;10.764;2023-09-18T08:27:37;8.40;;;3.92;;
57247;SDS011;55809;46.618;10.764;2023-09-18T08:30:07;8.57;;;4.03;;
57247;SDS011;55809;46.618;10.764;2023-09-18T08:32:37;9.30;;;3.75;;
57247;SDS011;55809;46.618;10.764;2023-09-18T08:35:05;13.25;;;4.30;;
57247;SDS011;55809;46.618;10.764;2023-09-18T08:37:33;7.10;;;3.58;;
57247;SDS011;55809;46.618;10.764;2023-09-18T08:40:00;9.90;;;4.35;;
57247;SDS011;55809;46.618;10.764;2023-09-18T08:42:34;7.75;;;3.63;;
57247;SDS011;55809;46.618;10.764;2023-09-18T08:45:05;9.05;;;4.07;;
57247;SDS011;55809;46.618;10.764;2023-09-18T08:47:37;9.23;;;4.22;;
57247;SDS011;55809;46.618;10.764;2023-09-18T08:50:06;8.57;;;3.83;;
57247;SDS011;55809;46.618;10.764;2023-09-18T08:52:34;7.90;;;4.00;;
57247;SDS011;55809;46.618;10.764;2023-09-18T08:55:02;11.40;;;4.82;;
57247;SDS011;55809;46.618;10.764;2023-09-18T08:57:30;11.63;;;4.78;;
57247;SDS011;55809;46.618;10.764;2023-09-18T08:59:58;10.68;;;5.55;;
57247;SDS011;55809;46.618;10.764;2023-09-18T09:02:31;8.38;;;4.30;;
57247;SDS011;55809;46.618;10.764;2023-09-18T09:05:00;9.95;;;4.53;;
57247;SDS011;55809;46.618;10.764;2023-09-18T09:07:27;9.00;;;4.78;;
57247;SDS011;55809;46.618;10.764;2023-09-18T09:09:56;8.90;;;4.80;;
57247;SDS011;55809;46.618;10.764;2023-09-18T09:15:15;11.27;;;4.22;;
57247;SDS011;55809;46.618;10.764;2023-09-18T09:17:42;12.23;;;5.07;;
57247;SDS011;55809;46.618;10.764;2023-09-18T09:20:13;11.77;;;5.40;;
57247;SDS011;55809;46.618;10.764;2023-09-18T09:22:41;12.65;;;4.75;;
57247;SDS011;55809;46.618;10.764;2023-09-18T09:25:24;10.18;;;4.88;;
57247;SDS011;55809;46.618;10.764;2023-09-18T09:27:52;11.50;;;5.70;;
57247;SDS011;55809;46.618;10.764;2023-09-18T09:30:20;10.82;;;5.93;;
57247;SDS011;55809;46.618;10.764;2023-09-18T09:32:49;10.02;;;5.50;;
57247;SDS011;55809;46.618;10.764;2023-09-18T09:35:22;10.43;;;5.85;;
57247;SDS011;55809;46.618;10.764;2023-09-18T09:37:52;10.77;;;5.35;;
57247;SDS011;55809;46.618;10.764;2023-09-18T09:40:20;10.90;;;5.70;;
57247;SDS011;55809;46.618;10.764;2023-09-18T09:42:50;11.05;;;6.07;;
57247;SDS011;55809;46.618;10.764;2023-09-18T09:45:19;10.68;;;5.55;;
57247;SDS011;55809;46.618;10.764;2023-09-18T09:47:46;12.25;;;5.78;;
57247;SDS011;55809;46.618;10.764;2023-09-18T09:50:14;9.88;;;5.65;;
57247;SDS011;55809;46.618;10.764;2023-09-18T09:52:45;10.45;;;5.95;;
57247;SDS011;55809;46.618;10.764;2023-09-18T09:57:52;9.40;;;5.40;;
57247;SDS011;55809;46.618;10.764;2023-09-18T10:00:22;10.23;;;5.70;;
57247;SDS011;55809;46.618;10.764;2023-09-18T10:02:56;11.25;;;5.40;;
57247;SDS011;55809;46.618;10.764;2023-09-18T10:05:26;10.90;;;5.57;;
57247;SDS011;55809;46.618;10.764;2023-09-18T10:08:02;11.85;;;6.40;;
57247;SDS011;55809;46.618;10.764;2023-09-18T10:10:31;11.98;;;6.35;;
57247;SDS011;55809;46.618;10.764;2023-09-18T10:13:00;11.47;;;6.17;;
57247;SDS011;55809;46.618;10.764;2023-09-18T10:15:34;10.90;;;5.57;;
57247;SDS011;55809;46.618;10.764;2023-09-18T10:18:05;14.20;;;6.10;;
57247;SDS011;55809;46.618;10.764;2023-09-18T10:20:37;10.38;;;5.75;;
57247;SDS011;55809;46.618;10.764;2023-09-18T10:23:10;12.40;;;6.55;;
57247;SDS011;55809;46.618;10.764;2023-09-18T10:25:48;10.20;;;5.70;;
57247;SDS011;55809;46.618;10.764;2023-09-18T10:28:19;9.57;;;5.45;;
57247;SDS011;55809;46.618;10.764;2023-09-18T10:30:46;10.80;;;5.15;;
57247;SDS011;55809;46.618;10.764;2023-09-18T10:33:15;12.25;;;6.35;;
57247;SDS011;55809;46.618;10.764;2023-09-18T10:35:43;11.73;;;5.50;;
57247;SDS011;55809;46.618;10.764;2023-09-18T10:38:14;10.73;;;6.13;;
57247;SDS011;55809;46.618;10.764;2023-09-18T10:40:46;10.43;;;6.03;;
57247;SDS011;55809;46.618;10.764;2023-09-18T10:43:15;11.38;;;6.05;;
57247;SDS011;55809;46.618;10.764;2023-09-18T10:45:43;11.55;;;5.57;;
57247;SDS011;55809;46.618;10.764;2023-09-18T10:48:11;11.30;;;5.25;;
57247;SDS011;55809;46.618;10.764;2023-09-18T10:50:40;11.15;;;6.22;;
57247;SDS011;55809;46.618;10.764;2023-09-18T10:53:11;13.57;;;5.75;;
57247;SDS011;55809;46.618;10.764;2023-09-18T10:55:40;11.77;;;5.85;;
57247;SDS011;55809;46.618;10.764;2023-09-18T11:00:36;11.85;;;5.55;;
57247;SDS011;55809;46.618;10.764;2023-09-18T11:05:37;9.80;;;5.10;;
57247;SDS011;55809;46.618;10.764;2023-09-18T11:11:02;13.13;;;6.05;;
57247;SDS011;55809;46.618;10.764;2023-09-18T11:13:35;10.32;;;5.70;;
57247;SDS011;55809;46.618;10.764;2023-09-18T11:18:42;9.35;;;4.60;;
57247;SDS011;55809;46.618;10.764;2023-09-18T11:21:12;12.25;;;5.50;;
57247;SDS011;55809;46.618;10.764;2023-09-18T11:23:43;10.70;;;6.00;;
57247;SDS011;55809;46.618;10.764;2023-09-18T11:26:10;12.55;;;5.82;;
57247;SDS011;55809;46.618;10.764;2023-09-18T11:28:37;12.43;;;6.15;;
57247;SDS011;55809;46.618;10.764;2023-09-18T11:31:05;13.35;;;5.25;;
57247;SDS011;55809;46.618;10.764;2023-09-18T11:33:33;14.30;;;6.32;;
57247;SDS011;55809;46.618;10.764;2023-09-18T11:36:03;9.05;;;5.43;;
57247;SDS011;55809;46.618;10.764;2023-09-18T11:38:33;11.88;;;6.70;;
57247;SDS011;55809;46.618;10.764;2023-09-18T11:41:01;11.80;;;5.82;;
57247;SDS011;55809;46.618;10.764;2023-09-18T11:43:48;12.43;;;6.10;;
57247;SDS011;55809;46.618;10.764;2023-09-18T11:46:17;10.07;;;5.53;;
57247;SDS011;55809;46.618;10.764;2023-09-18T11:48:46;9.45;;;5.15;;
57247;SDS011;55809;46.618;10.764;2023-09-18T11:51:23;13.38;;;6.18;;
57247;SDS011;55809;46.618;10.764;2023-09-18T11:53:53;12.52;;;6.63;;
57247;SDS011;55809;46.618;10.764;2023-09-18T11:56:23;11.60;;;5.40;;
57247;SDS011;55809;46.618;10.764;2023-09-18T11:58:51;12.05;;;5.50;;
57247;SDS011;55809;46.618;10.764;2023-09-18T12:01:20;9.40;;;5.57;;
57247;SDS011;55809;46.618;10.764;2023-09-18T12:03:52;12.80;;;7.18;;
57247;SDS011;55809;46.618;10.764;2023-09-18T12:06:20;11.63;;;5.78;;
57247;SDS011;55809;46.618;10.764;2023-09-18T12:08:48;11.10;;;5.20;;
57247;SDS011;55809;46.618;10.764;2023-09-18T12:11:17;12.23;;;5.72;;
57247;SDS011;55809;46.618;10.764;2023-09-18T12:13:46;12.10;;;4.97;;
57247;SDS011;55809;46.618;10.764;2023-09-18T12:16:16;9.32;;;5.00;;
57247;SDS011;55809;46.618;10.764;2023-09-18T12:18:47;11.63;;;5.78;;
57247;SDS011;55809;46.618;10.764;2023-09-18T12:21:15;11.27;;;5.53;;
57247;SDS011;55809;46.618;10.764;2023-09-18T12:23:44;11.50;;;5.72;;
57247;SDS011;55809;46.618;10.764;2023-09-18T12:26:12;12.18;;;5.63;;
57247;SDS011;55809;46.618;10.764;2023-09-18T12:28:41;12.57;;;5.90;;
57247;SDS011;55809;46.618;10.764;2023-09-18T12:31:13;13.55;;;6.30;;
57247;SDS011;55809;46.618;10.764;2023-09-18T12:33:42;12.93;;;6.10;;
57247;SDS011;55809;46.618;10.764;2023-09-18T12:36:12;12.18;;;6.18;;
57247;SDS011;55809;46.618;10.764;2023-09-18T12:38:45;15.13;;;6.45;;
57247;SDS011;55809;46.618;10.764;2023-09-18T12:41:21;11.25;;;5.70;;
57247;SDS011;55809;46.618;10.764;2023-09-18T12:43:50;12.55;;;5.63;;
57247;SDS011;55809;46.618;10.764;2023-09-18T12:46:19;11.85;;;5.40;;
57247;SDS011;55809;46.618;10.764;2023-09-18T12:48:47;9.90;;;5.47;;
57247;SDS011;55809;46.618;10.764;2023-09-18T12:51:14;10.65;;;5.72;;
57247;SDS011;55809;46.618;10.764;2023-09-18T12:53:47;10.00;;;4.93;;
57247;SDS011;55809;46.618;10.764;2023-09-18T12:56:25;11.38;;;5.05;;
57247;SDS011;55809;46.618;10.764;2023-09-18T12:58:52;10.65;;;5.45;;
57247;SDS011;55809;46.618;10.764;2023-09-18T13:01:25;10.95;;;5.40;;
57247;SDS011;55809;46.618;10.764;2023-09-18T13:03:53;10.43;;;5.65;;
57247;SDS011;55809;46.618;10.764;2023-09-18T13:06:21;10.52;;;5.57;;
57247;SDS011;55809;46.618;10.764;2023-09-18T13:08:49;10.55;;;4.90;;
57247;SDS011;55809;46.618;10.764;2023-09-18T13:11:22;11.55;;;5.40;;
57247;SDS011;55809;46.618;10.764;2023-09-18T13:13:57;10.48;;;5.47;;
57247;SDS011;55809;46.618;10.764;2023-09-18T13:16:26;11.75;;;6.15;;
57247;SDS011;55809;46.618;10.764;2023-09-18T13:18:53;16.45;;;6.43;;
57247;SDS011;55809;46.618;10.764;2023-09-18T13:21:23;13.07;;;5.10;;
57247;SDS011;55809;46.618;10.764;2023-09-18T13:23:50;13.93;;;5.95;;
57247;SDS011;55809;46.618;10.764;2023-09-18T13:26:18;10.60;;;5.72;;
57247;SDS011;55809;46.618;10.764;2023-09-18T13:28:46;8.88;;;5.05;;
57247;SDS011;55809;46.618;10.764;2023-09-18T13:31:12;9.95;;;5.70;;
57247;SDS011;55809;46.618;10.764;2023-09-18T13:33:42;9.98;;;5.22;;
57247;SDS011;55809;46.618;10.764;2023-09-18T13:36:09;10.40;;;5.28;;
57247;SDS011;55809;46.618;10.764;2023-09-18T13:38:37;11.07;;;5.13;;
57247;SDS011;55809;46.618;10.764;2023-09-18T13:41:04;12.20;;;5.20;;
57247;SDS011;55809;46.618;10.764;2023-09-18T13:43:31;11.45;;;5.28;;
57247;SDS011;55809;46.618;10.764;2023-09-18T13:46:00;9.68;;;4.90;;
57247;SDS011;55809;46.618;10.764;2023-09-18T13:48:29;9.65;;;5.43;;
57247;SDS011;55809;46.618;10.764;2023-09-18T13:50:59;10.00;;;4.82;;
57247;SDS011;55809;46.618;10.764;2023-09-18T13:53:26;10.23;;;5.32;;
57247;SDS011;55809;46.618;10.764;2023-09-18T13:55:55;10.35;;;5.68;;
57247;SDS011;55809;46.618;10.764;2023-09-18T13:58:22;17.38;;;5.38;;
57247;SDS011;55809;46.618;10.764;2023-09-18T14:00:50;10.13;;;6.00;;
57247;SDS011;55809;46.618;10.764;2023-09-18T14:03:17;11.52;;;6.05;;
57247;SDS011;55809;46.618;10.764;2023-09-18T14:05:44;14.07;;;5.85;;
57247;SDS011;55809;46.618;10.764;2023-09-18T14:08:12;13.25;;;6.50;;
57247;SDS011;55809;46.618;10.764;2023-09-18T14:10:39;12.43;;;6.22;;
57247;SDS011;55809;46.618;10.764;2023-09-18T14:13:08;12.88;;;7.20;;
57247;SDS011;55809;46.618;10.764;2023-09-18T14:15:35;10.75;;;5.40;;
57247;SDS011;55809;46.618;10.764;2023-09-18T14:18:02;9.48;;;5.13;;
57247;SDS011;55809;46.618;10.764;2023-09-18T14:20:29;13.15;;;5.82;;
57247;SDS011;55809;46.618;10.764;2023-09-18T14:22:56;12.40;;;5.68;;
57247;SDS011;55809;46.618;10.764;2023-09-18T14:25:25;11.07;;;5.78;;
57247;SDS011;55809;46.618;10.764;2023-09-18T14:27:52;9.55;;;5.18;;
57247;SDS011;55809;46.618;10.764;2023-09-18T14:30:19;12.15;;;6.05;;
57247;SDS011;55809;46.618;10.764;2023-09-18T14:32:51;11.82;;;6.13;;
57247;SDS011;55809;46.618;10.764;2023-09-18T14:35:18;13.30;;;6.18;;
57247;SDS011;55809;46.618;10.764;2023-09-18T14:37:45;13.18;;;5.65;;
57247;SDS011;55809;46.618;10.764;2023-09-18T14:40:12;13.02;;;5.70;;
57247;SDS011;55809;46.618;10.764;2023-09-18T14:42:41;9.77;;;5.70;;
57247;SDS011;55809;46.618;10.764;2023-09-18T14:45:08;12.60;;;6.20;;
57247;SDS011;55809;46.618;10.764;2023-09-18T14:47:38;14.43;;;6.60;;
57247;SDS011;55809;46.618;10.764;2023-09-18T14:50:05;11.93;;;6.32;;
57247;SDS011;55809;46.618;10.764;2023-09-18T14:52:33;9.90;;;5.65;;
57247;SDS011;55809;46.618;10.764;2023-09-18T14:55:00;14.38;;;6.43;;
57247;SDS011;55809;46.618;10.764;2023-09-18T14:57:28;12.35;;;6.50;;